Cocoa, FL (32922)

7:05 PM EST on February 07, 2016 (GMT -0500)
Indian River Club | | Change Station
CLOSE
Current Station
Personal Weather Station
Location: Rockledge, FL
Elevation: 0 ft
Nearby Weather Stations

Elev 0 ft 28.33 °N, 80.72 °W | Updated 2 seconds ago

Clear
Clear
51.4 °F
Feels Like 51.4 °F
N
0.0
Wind Variable Wind from WNW
Gusts 1.0 mph

Today
High -- | Low -- °F
--% Chance of Precip.
Yesterday
High -- | Low -- °F
Precip. -- in
Pressure 30.01 in
Visibility 10.0 miles
Clouds Clear
Dew Point 40 °F
Humidity 65%
Rainfall 0.07 in
Snow Depth Not available.
7:07 AM 6:07 PM
Waning Crescent, 1% visible
METAR KCOF 072358Z AUTO 31008KT 10SM CLR 13/02 A3000 RMK AO2 SLP163 T01250020 10153 20106 52024 $
Pressure 30.01 in
Visibility 10.0 miles
Clouds Clear
Dew Point 40 °F
Humidity 65%
Rainfall 0.07 in
Snow Depth Not available.
7:07 AM 6:07 PM
Waning Crescent, 1% visible
METAR KCOF 072358Z AUTO 31008KT 10SM CLR 13/02 A3000 RMK AO2 SLP163 T01250020 10153 20106 52024 $

10-Day Weather Forecast

Almanac

Astronomy

Feb. 07, 2016 Rise Set
Actual Time
Civil Twilight
Nautical Twilight
Astronomical Twilight
Moon
Length of Visible Light
Length of Day
Tomorrow will be .
, % of the Moon is Illuminated

Today's Extremes

State Highs State Lows

Community

WunderPhotos

Upload Photos

1,891,334 photos uploaded!

WunderBlog® & News

Nearby

Air Quality

  Air Quality AQ Index Pollutant
Not available.

Snow Depth

Station Depth Elevation

Earthquake Activity

City Distance Mag. Time & Date
Minimum magnitude displayed is 2.5.

Coastal Water Temperatures

Place Temperature

Stations

Nearby Weather Stations

Station Location Temp. Windchill Dew Point Humidity Wind Precip. Elev Updated Type
                   

Watches & Warnings

There are currently no watches in effect.